Airport View

Enter AWOS ICAO identifier for current METAR.

ex. KFNL

KALM 121010Z AUTO 21005KT 10SM OVC041 04/M04 A3046 RMK AO2

12 Nov 2019 10:16

Frequency: 127.825

Phone: 575-439-4112

Other Area AWOS: KHMN - KSRR - KLRU - KBIF

TAF KHMN 120900Z 1209/1315 23009KT 9999 BKN040 QNH3044INS BECMG 1212/1213 VRB06KT 9999 SCT040 QNH3046INS BECMG 1218/1219 VRB06KT 9999 FEW060 QNH3021INS BECMG 1314/1315 33012KT 9999 SKC QNH3020INS TX12/1221Z TN00/1213Z